Time;durP1;ratioP1;P1;durP2;ratioP2;P2;SDS_P1;SDS_P2;PMS_P1;PMS_P2;Temp;Humidity;BMP_temperature;BMP_pressure;BME280_temperature;BME280_humidity;BME280_pressure;Samples;Min_cycle;Max_cycle;Signal;HPM_P1;HPM_P2
2021/05/04 00:01:11;;;;;;;4.47;3.00;;;6.60;91.10;;;;;;5034544;28;20119;-73
2021/05/04 00:03:37;;;;;;;5.30;3.10;;;6.60;91.20;;;;;;5052461;28;20025;-73
2021/05/04 00:06:03;;;;;;;4.15;3.03;;;6.70;91.50;;;;;;5052216;28;20021;-73
2021/05/04 00:08:29;;;;;;;3.90;2.95;;;6.50;91.40;;;;;;5052269;28;20025;-73
2021/05/04 00:10:55;;;;;;;2.92;2.63;;;6.40;91.80;;;;;;5034564;28;20025;-73
2021/05/04 00:13:20;;;;;;;5.13;3.10;;;6.30;92.50;;;;;;5017891;28;20136;-73
2021/05/04 00:15:46;;;;;;;6.05;3.88;;;6.30;92.50;;;;;;5052143;28;20439;-73
2021/05/04 00:18:12;;;;;;;7.00;2.78;;;6.30;93.00;;;;;;5052185;28;20033;-73
2021/05/04 00:20:39;;;;;;;5.03;3.15;;;6.20;93.20;;;;;;5051879;28;20061;-73
2021/05/04 00:23:04;;;;;;;4.30;3.40;;;6.10;94.00;;;;;;5052306;28;20025;-73
2021/05/04 00:25:30;;;;;;;4.75;3.15;;;6.10;93.90;;;;;;5052236;28;20039;-73
2021/05/04 00:27:56;;;;;;;4.35;3.17;;;6.10;94.70;;;;;;5034152;28;20423;-73
2021/05/04 00:30:22;;;;;;;4.28;3.17;;;6.00;95.30;;;;;;5052027;28;20086;-73
2021/05/04 00:32:48;;;;;;;4.75;3.63;;;6.10;95.30;;;;;;5051667;28;20029;-73
2021/05/04 00:35:14;;;;;;;4.57;3.03;;;6.20;95.00;;;;;;5051821;28;20025;-73
2021/05/04 00:37:40;;;;;;;5.88;3.20;;;6.20;95.40;;;;;;5051798;28;20028;-73
2021/05/04 00:40:06;;;;;;;3.45;2.90;;;6.20;96.10;;;;;;5051761;28;20033;-73
2021/05/04 00:42:32;;;;;;;4.97;2.80;;;6.30;95.80;;;;;;5051905;28;20017;-73
2021/05/04 00:44:58;;;;;;;3.40;3.03;;;6.30;96.20;;;;;;5052059;28;20021;-73
2021/05/04 00:47:23;;;;;;;5.50;3.67;;;6.20;95.10;;;;;;5051671;28;20027;-73
2021/05/04 00:49:49;;;;;;;4.07;3.38;;;6.20;95.20;;;;;;5051804;28;20014;-73
2021/05/04 00:52:15;;;;;;;3.53;2.95;;;6.20;94.80;;;;;;5051781;28;20025;-73
2021/05/04 00:54:41;;;;;;;3.15;2.70;;;6.20;95.80;;;;;;5051706;28;20053;-73
2021/05/04 00:57:11;;;;;;;3.92;3.10;;;6.10;95.80;;;;;;5051581;28;20056;-73
2021/05/04 00:59:37;;;;;;;6.55;3.45;;;6.10;96.10;;;;;;5051811;28;20357;-73
2021/05/04 01:02:04;;;;;;;1.00;0.73;;;6.00;96.80;;;;;;5051618;28;20040;-73
2021/05/04 01:04:31;;;;;;;3.50;2.67;;;5.90;97.00;;;;;;5051742;28;20308;-73
2021/05/04 01:06:56;;;;;;;3.30;3.00;;;5.90;98.50;;;;;;5051379;28;20111;-74
2021/05/04 01:09:22;;;;;;;3.55;3.15;;;6.10;98.00;;;;;;5051658;28;20113;-73
2021/05/04 01:11:48;;;;;;;4.55;3.20;;;6.00;98.20;;;;;;5051582;28;20025;-74
2021/05/04 01:14:14;;;;;;;3.33;3.03;;;6.00;97.80;;;;;;5051627;28;20033;-73
2021/05/04 01:16:46;;;;;;;5.30;3.30;;;6.10;97.60;;;;;;5051361;28;20028;-73
2021/05/04 01:19:11;;;;;;;4.90;3.65;;;6.00;98.00;;;;;;5017313;28;20437;-73
2021/05/04 01:21:37;;;;;;;3.80;3.00;;;6.00;98.70;;;;;;5051299;28;20061;-73
2021/05/04 01:24:04;;;;;;;6.03;3.72;;;6.10;97.40;;;;;;5051397;28;20021;-74
2021/05/04 01:26:30;;;;;;;5.35;3.78;;;5.90;97.70;;;;;;5050053;28;20025;-74
2021/05/04 01:28:56;;;;;;;5.63;3.05;;;5.80;99.50;;;;;;5051394;28;20021;-73
2021/05/04 01:31:21;;;;;;;4.10;3.50;;;5.90;98.20;;;;;;5051433;28;20044;-74
2021/05/04 01:33:47;;;;;;;4.43;3.40;;;5.90;98.70;;;;;;5051314;28;20029;-74
2021/05/04 01:36:14;;;;;;;5.00;3.35;;;5.80;99.50;;;;;;5051278;28;20025;-74
2021/05/04 01:38:39;;;;;;;2.78;2.47;;;6.00;99.30;;;;;;5051354;28;20036;-73
2021/05/04 01:41:05;;;;;;;3.95;3.13;;;6.10;97.50;;;;;;5051263;28;20029;-74
2021/05/04 01:43:31;;;;;;;4.43;2.95;;;6.00;98.10;;;;;;5051200;28;20108;-74
2021/05/04 01:45:56;;;;;;;3.13;2.83;;;6.10;96.90;;;;;;5052722;28;20100;-74
2021/05/04 01:48:22;;;;;;;3.67;2.72;;;6.10;97.00;;;;;;5055037;28;20029;-74
2021/05/04 01:50:48;;;;;;;4.53;3.22;;;6.20;96.70;;;;;;5054942;28;20099;-73
2021/05/04 01:53:14;;;;;;;3.40;2.63;;;6.20;96.40;;;;;;5020588;28;20373;-74
2021/05/04 01:55:39;;;;;;;3.17;2.40;;;6.30;96.00;;;;;;5036788;28;20095;-73
2021/05/04 01:58:05;;;;;;;8.05;3.45;;;6.30;94.40;;;;;;5054821;28;20391;-74
2021/05/04 02:00:31;;;;;;;3.17;2.88;;;6.20;94.50;;;;;;5054739;28;20439;-74
2021/05/04 02:02:57;;;;;;;5.90;3.25;;;6.10;94.90;;;;;;5054909;28;20017;-74
2021/05/04 02:05:22;;;;;;;5.47;3.50;;;6.30;95.40;;;;;;5054664;28;20025;-74
2021/05/04 02:07:48;;;;;;;3.78;2.75;;;6.30;94.90;;;;;;5054441;28;20146;-74
2021/05/04 02:10:14;;;;;;;3.80;2.78;;;6.40;94.50;;;;;;5054662;28;20128;-74
2021/05/04 02:12:41;;;;;;;3.35;3.03;;;6.40;95.00;;;;;;5054443;28;20025;-74
2021/05/04 02:15:08;;;;;;;3.83;3.03;;;6.40;94.30;;;;;;5054661;28;20025;-74
2021/05/04 02:17:34;;;;;;;5.80;3.10;;;6.30;94.00;;;;;;5054412;28;20036;-74
2021/05/04 02:19:59;;;;;;;7.55;3.03;;;6.20;94.40;;;;;;5036515;28;20476;-73
2021/05/04 02:22:25;;;;;;;5.85;2.90;;;6.20;94.40;;;;;;5036320;28;20539;-74
2021/05/04 02:24:51;;;;;;;6.03;3.25;;;6.00;94.80;;;;;;5036294;28;20112;-74
2021/05/04 02:27:17;;;;;;;5.55;3.00;;;6.10;94.70;;;;;;5036222;28;20037;-74
2021/05/04 02:29:42;;;;;;;4.70;3.15;;;6.10;95.40;;;;;;5054427;28;20104;-73
2021/05/04 02:32:08;;;;;;;3.75;2.95;;;6.00;93.90;;;;;;5054259;28;20029;-73
2021/05/04 02:34:34;;;;;;;3.67;2.50;;;5.90;93.70;;;;;;5054329;28;20077;-73
2021/05/04 02:36:59;;;;;;;4.50;3.50;;;5.80;94.60;;;;;;5054074;28;20385;-74
2021/05/04 02:39:25;;;;;;;3.95;2.92;;;5.60;95.00;;;;;;5054784;28;20104;-73
2021/05/04 02:41:51;;;;;;;3.05;2.72;;;5.60;95.60;;;;;;5036410;28;20033;-74
2021/05/04 02:44:17;;;;;;;5.15;3.30;;;5.50;96.00;;;;;;5054150;28;20017;-74
2021/05/04 02:46:42;;;;;;;3.97;3.40;;;5.50;96.20;;;;;;5053939;28;20415;-74
2021/05/04 02:49:08;;;;;;;4.50;3.25;;;5.50;97.40;;;;;;5053997;28;20024;-73
2021/05/04 02:51:34;;;;;;;3.72;3.25;;;5.50;96.20;;;;;;5053879;28;20025;-74
2021/05/04 02:53:59;;;;;;;9.32;3.10;;;5.50;96.30;;;;;;5053739;28;20033;-73
2021/05/04 02:56:25;;;;;;;3.63;2.90;;;5.50;98.00;;;;;;5053197;28;20586;-74
2021/05/04 02:58:51;;;;;;;9.07;3.33;;;5.60;97.10;;;;;;5053722;28;20032;-73
2021/05/04 03:01:17;;;;;;;7.10;3.17;;;5.70;97.50;;;;;;5053600;28;20392;-73
2021/05/04 03:03:44;;;;;;;3.67;3.25;;;5.60;97.70;;;;;;5053880;28;20032;-74
2021/05/04 03:06:10;;;;;;;4.38;2.92;;;5.50;98.40;;;;;;5035364;28;20029;-74
2021/05/04 03:08:36;;;;;;;8.02;3.03;;;5.60;98.30;;;;;;5053559;28;20090;-73
2021/05/04 03:11:02;;;;;;;7.25;3.45;;;5.60;97.90;;;;;;5053508;28;20112;-73
2021/05/04 03:13:29;;;;;;;3.45;2.92;;;5.60;97.90;;;;;;5053686;28;20616;-73
2021/05/04 03:15:56;;;;;;;3.35;2.88;;;5.80;97.90;;;;;;5035557;28;20032;-74
2021/05/04 03:18:21;;;;;;;4.43;2.88;;;5.80;96.10;;;;;;5035559;28;20109;-73
2021/05/04 03:20:52;;;;;;;3.88;2.70;;;5.90;96.70;;;;;;5035437;28;20099;-73
2021/05/04 03:23:19;;;;;;;3.45;2.97;;;5.90;95.60;;;;;;5053350;28;20074;-74
2021/05/04 03:25:46;;;;;;;3.80;2.72;;;6.00;95.10;;;;;;5053123;28;20025;-73
2021/05/04 03:28:12;;;;;;;4.03;3.13;;;6.00;94.70;;;;;;5053033;28;20020;-73
2021/05/04 03:30:38;;;;;;;4.43;2.25;;;5.90;94.50;;;;;;5035320;28;20025;-74
2021/05/04 03:33:05;;;;;;;3.05;2.75;;;5.80;94.80;;;;;;5052980;28;20358;-74
2021/05/04 03:35:31;;;;;;;3.88;3.15;;;5.90;94.70;;;;;;5035234;28;20531;-73
2021/05/04 03:37:57;;;;;;;4.80;3.10;;;5.70;94.00;;;;;;5052841;28;20025;-73
2021/05/04 03:40:23;;;;;;;4.45;2.88;;;5.50;95.50;;;;;;5052847;28;20033;-73
2021/05/04 03:42:49;;;;;;;6.72;2.75;;;5.50;95.60;;;;;;5035006;28;20070;-73
2021/05/04 03:45:14;;;;;;;8.90;3.10;;;5.40;95.70;;;;;;5052774;28;20058;-73
2021/05/04 03:47:41;;;;;;;10.05;3.38;;;5.40;96.10;;;;;;5052417;28;20571;-73
2021/05/04 03:50:10;;;;;;;6.57;3.75;;;5.30;95.70;;;;;;5052845;28;20594;-73
2021/05/04 03:52:36;;;;;;;9.25;3.40;;;5.20;96.10;;;;;;5052655;28;20044;-73
2021/05/04 03:55:02;;;;;;;9.82;3.00;;;5.20;96.10;;;;;;5052550;28;20525;-72
2021/05/04 03:57:28;;;;;;;10.35;3.88;;;5.10;97.10;;;;;;5052458;28;20021;-73
2021/05/04 03:59:54;;;;;;;6.60;3.22;;;5.10;97.50;;;;;;5034652;28;20377;-73
2021/05/04 04:02:20;;;;;;;6.55;3.45;;;5.20;97.90;;;;;;5034503;28;20024;-73
2021/05/04 04:04:46;;;;;;;3.97;3.25;;;5.30;97.90;;;;;;5052450;28;20025;-73
2021/05/04 04:07:11;;;;;;;9.65;3.75;;;5.50;96.90;;;;;;5052138;28;20501;-73
2021/05/04 04:09:37;;;;;;;6.57;3.78;;;5.70;96.50;;;;;;5051615;28;20226;-73
2021/05/04 04:12:03;;;;;;;5.07;3.08;;;5.70;95.20;;;;;;5034443;28;20533;-73
2021/05/04 04:14:29;;;;;;;5.50;3.47;;;5.80;95.50;;;;;;5052288;28;20500;-73
2021/05/04 04:16:55;;;;;;;14.40;3.75;;;5.80;95.40;;;;;;5052026;28;20033;-73
2021/05/04 04:19:20;;;;;;;7.18;3.10;;;5.70;95.30;;;;;;5052186;28;20037;-73
2021/05/04 04:21:48;;;;;;;3.80;2.60;;;5.60;95.10;;;;;;5052267;28;20029;-73
2021/05/04 04:24:15;;;;;;;6.47;3.70;;;5.60;95.10;;;;;;5052100;28;20017;-73
2021/05/04 04:26:40;;;;;;;5.95;3.10;;;5.70;95.40;;;;;;5051919;28;20029;-73
2021/05/04 04:29:06;;;;;;;7.22;3.00;;;5.60;95.20;;;;;;5051964;28;20385;-72
2021/05/04 04:31:32;;;;;;;4.63;2.83;;;5.60;95.60;;;;;;5052029;28;20449;-73
2021/05/04 04:33:57;;;;;;;5.05;3.30;;;5.50;96.40;;;;;;5052021;28;20029;-73
2021/05/04 04:36:23;;;;;;;4.90;3.00;;;5.40;96.90;;;;;;5051827;28;20036;-73
2021/05/04 04:38:49;;;;;;;6.50;3.25;;;5.40;98.00;;;;;;5051887;28;20032;-73
2021/05/04 04:41:15;;;;;;;4.50;2.88;;;5.60;99.10;;;;;;5051700;28;20082;-73
2021/05/04 04:43:40;;;;;;;6.18;2.75;;;5.70;99.20;;;;;;5051876;28;20036;-73
2021/05/04 04:46:06;;;;;;;4.80;3.88;;;5.80;98.40;;;;;;5051706;28;20530;-73
2021/05/04 04:48:32;;;;;;;3.55;2.35;;;5.80;98.60;;;;;;5051841;28;20053;-73
2021/05/04 04:50:57;;;;;;;5.38;3.15;;;5.90;99.40;;;;;;5051808;28;20029;-73
2021/05/04 04:53:24;;;;;;;11.02;3.63;;;6.00;99.00;;;;;;5051684;28;20036;-73
2021/05/04 04:55:50;;;;;;;5.63;3.13;;;5.90;99.90;;;;;;5051559;28;20029;-73
2021/05/04 04:58:15;;;;;;;8.05;3.15;;;6.10;99.90;;;;;;5051673;28;20028;-73
2021/05/04 05:00:41;;;;;;;7.13;3.15;;;6.20;99.30;;;;;;5033603;28;20025;-73
2021/05/04 05:03:07;;;;;;;15.55;3.03;;;6.40;98.30;;;;;;5051776;28;20021;-73
2021/05/04 05:05:32;;;;;;;7.55;3.28;;;6.50;97.60;;;;;;5051661;28;20052;-73
2021/05/04 05:07:58;;;;;;;6.82;2.80;;;6.50;97.00;;;;;;5058682;22;20049;-70
2021/05/04 05:10:24;;;;;;;4.05;2.88;;;6.60;96.30;;;;;;5069166;28;20043;-70
2021/05/04 05:12:50;;;;;;;5.78;2.80;;;6.50;97.30;;;;;;5070675;28;20090;-70
2021/05/04 05:15:16;;;;;;;5.72;2.85;;;6.60;96.90;;;;;;5043233;28;20020;-70
2021/05/04 05:17:42;;;;;;;7.03;2.67;;;6.70;96.30;;;;;;5069982;28;20025;-70
2021/05/04 05:20:08;;;;;;;5.82;3.40;;;6.80;95.90;;;;;;5072796;28;20085;-70
2021/05/04 05:22:34;;;;;;;6.95;3.40;;;6.90;95.00;;;;;;5074020;28;20023;-70
2021/05/04 05:25:00;;;;;;;7.50;3.33;;;7.10;95.00;;;;;;5073480;28;20099;-70
2021/05/04 05:27:30;;;;;;;5.45;3.17;;;7.10;96.10;;;;;;5073377;28;20032;-70
2021/05/04 05:29:57;;;;;;;5.55;2.60;;;7.30;96.30;;;;;;5066326;28;20395;-70
2021/05/04 05:32:22;;;;;;;5.45;2.80;;;7.40;95.80;;;;;;5073946;28;20028;-70
2021/05/04 05:34:48;;;;;;;4.88;2.85;;;7.30;95.90;;;;;;5072500;28;20020;-70
2021/05/04 05:37:14;;;;;;;5.03;2.60;;;7.20;93.40;;;;;;5073236;28;20016;-70
2021/05/04 05:39:43;;;;;;;4.10;2.40;;;7.40;91.20;;;;;;5073598;28;20028;-70
2021/05/04 05:42:15;;;;;;;5.50;2.22;;;7.50;88.30;;;;;;5073668;28;20025;-70
2021/05/04 05:44:41;;;;;;;3.60;2.20;;;7.70;88.80;;;;;;5061415;28;20498;-70
2021/05/04 05:47:07;;;;;;;2.75;1.60;;;7.80;87.60;;;;;;5066047;28;20017;-70
2021/05/04 05:49:33;;;;;;;7.95;2.13;;;7.80;88.20;;;;;;5056345;28;20502;-70
2021/05/04 05:51:58;;;;;;;3.85;2.88;;;7.90;88.00;;;;;;5073650;28;20123;-70
2021/05/04 05:54:25;;;;;;;4.15;2.63;;;7.90;85.70;;;;;;5073836;28;20380;-70
2021/05/04 05:56:51;;;;;;;4.57;2.15;;;7.90;84.70;;;;;;5055536;28;20498;-70
2021/05/04 05:59:17;;;;;;;4.20;2.33;;;8.10;84.60;;;;;;5056963;28;20066;-70
2021/05/04 06:01:43;;;;;;;2.63;2.42;;;8.30;83.10;;;;;;5069791;28;20483;-70
2021/05/04 06:04:08;;;;;;;6.72;2.28;;;8.40;82.20;;;;;;5072893;28;20497;-70
2021/05/04 06:06:34;;;;;;;4.05;2.00;;;8.50;82.40;;;;;;5072051;28;20604;-70
2021/05/04 06:09:00;;;;;;;3.55;2.30;;;8.60;81.20;;;;;;5058652;28;20087;-70
2021/05/04 06:11:26;;;;;;;5.13;2.10;;;8.70;84.60;;;;;;5072120;28;20029;-73
2021/05/04 06:13:51;;;;;;;2.55;2.03;;;8.80;84.10;;;;;;5073186;28;20060;-70
2021/05/04 06:16:17;;;;;;;4.05;2.70;;;8.90;85.30;;;;;;5056481;28;20089;-70
2021/05/04 06:18:43;;;;;;;7.80;2.45;;;9.10;84.90;;;;;;5055030;28;20028;-70
2021/05/04 06:21:09;;;;;;;3.05;2.38;;;9.30;85.10;;;;;;5059891;28;20088;-71
2021/05/04 06:23:34;;;;;;;2.85;2.30;;;9.50;85.80;;;;;;5072366;28;20480;-71
2021/05/04 06:26:01;;;;;;;5.15;2.75;;;9.60;83.80;;;;;;5073232;28;20032;-71
2021/05/04 06:28:27;;;;;;;2.53;2.33;;;9.70;77.90;;;;;;5073383;28;20067;-71
2021/05/04 06:30:53;;;;;;;2.42;2.20;;;9.70;75.30;;;;;;5072135;28;20052;-71
2021/05/04 06:33:18;;;;;;;7.43;1.90;;;9.80;74.30;;;;;;5062431;28;20017;-71
2021/05/04 06:35:48;;;;;;;2.88;1.88;;;9.90;71.90;;;;;;5061771;28;20033;-71
2021/05/04 06:38:16;;;;;;;2.35;1.90;;;9.90;71.10;;;;;;5060207;28;20033;-71
2021/05/04 06:40:42;;;;;;;6.88;1.73;;;10.00;70.80;;;;;;5072788;28;20017;-71
2021/05/04 06:43:09;;;;;;;3.35;2.10;;;10.00;67.60;;;;;;5052867;28;20104;-71
2021/05/04 06:45:35;;;;;;;3.33;2.15;;;10.10;66.70;;;;;;5072696;28;20025;-71
2021/05/04 06:48:01;;;;;;;4.13;2.00;;;10.30;66.90;;;;;;5059890;28;20031;-71
2021/05/04 06:50:27;;;;;;;4.28;1.80;;;10.30;65.90;;;;;;5073025;28;20077;-71
2021/05/04 06:52:54;;;;;;;5.60;2.78;;;10.40;64.70;;;;;;5072460;28;20032;-71
2021/05/04 06:55:20;;;;;;;17.75;1.65;;;10.50;63.80;;;;;;5072707;28;20048;-72
2021/05/04 06:57:46;;;;;;;8.65;1.80;;;10.60;63.10;;;;;;5071614;28;20024;-72
2021/05/04 07:00:13;;;;;;;11.00;2.63;;;10.80;63.70;;;;;;5072867;28;20020;-71
2021/05/04 07:02:38;;;;;;;46.90;4.25;;;10.80;62.10;;;;;;5059385;28;20029;-72
2021/05/04 07:05:05;;;;;;;5.90;1.90;;;11.00;63.40;;;;;;5072948;28;20082;-72
2021/05/04 07:07:31;;;;;;;6.50;2.05;;;11.20;62.10;;;;;;5042421;28;20067;-71
2021/05/04 07:09:56;;;;;;;4.32;2.00;;;11.50;60.50;;;;;;5071505;28;20048;-72
2021/05/04 07:12:22;;;;;;;6.95;2.30;;;11.70;61.30;;;;;;5072790;28;20031;-74
2021/05/04 07:14:48;;;;;;;3.88;2.00;;;11.70;59.20;;;;;;5046672;28;20032;-72
2021/05/04 07:17:14;;;;;;;17.58;2.33;;;11.70;60.20;;;;;;5056053;28;20119;-72
2021/05/04 07:19:40;;;;;;;3.97;2.35;;;11.70;59.90;;;;;;5070160;28;20020;-74
2021/05/04 07:22:08;;;;;;;9.73;2.65;;;11.80;60.10;;;;;;5072582;28;20039;-71
2021/05/04 07:24:34;;;;;;;5.85;1.92;;;12.00;61.00;;;;;;5059139;28;20021;-72
2021/05/04 07:27:00;;;;;;;3.65;2.20;;;12.10;60.90;;;;;;5062756;28;20070;-71
2021/05/04 07:29:25;;;;;;;3.45;1.45;;;12.20;58.40;;;;;;5071966;28;20536;-71
2021/05/04 07:31:51;;;;;;;1.95;1.70;;;12.20;60.40;;;;;;5048196;28;20028;-72
2021/05/04 07:34:17;;;;;;;2.53;1.67;;;12.20;62.40;;;;;;5054586;28;20519;-72
2021/05/04 07:36:43;;;;;;;1.60;1.50;;;12.30;62.50;;;;;;5056293;28;20238;-72
2021/05/04 07:39:09;;;;;;;2.58;1.55;;;12.40;61.70;;;;;;5072059;28;20029;-72
2021/05/04 07:41:35;;;;;;;3.28;1.77;;;12.60;62.00;;;;;;5050904;28;20035;-72
2021/05/04 07:44:01;;;;;;;1.75;1.48;;;12.70;61.50;;;;;;5056386;28;20028;-72
2021/05/04 07:46:28;;;;;;;2.95;1.55;;;12.90;60.40;;;;;;5068242;28;20081;-72
2021/05/04 07:48:55;;;;;;;2.40;1.33;;;13.00;59.50;;;;;;5057551;28;20025;-72
2021/05/04 07:51:21;;;;;;;5.70;1.65;;;13.00;59.40;;;;;;5068446;28;20028;-72
2021/05/04 07:53:47;;;;;;;2.05;1.83;;;12.90;59.50;;;;;;5060144;28;20035;-72
2021/05/04 07:56:13;;;;;;;2.88;1.75;;;12.90;60.90;;;;;;5059497;28;20154;-72
2021/05/04 07:58:39;;;;;;;6.03;1.85;;;13.00;60.80;;;;;;5065497;28;20032;-72
2021/05/04 08:01:06;;;;;;;1.92;1.73;;;13.00;59.80;;;;;;5066573;28;20032;-72
2021/05/04 08:03:33;;;;;;;4.15;1.58;;;13.00;59.70;;;;;;5071246;28;20017;-72
2021/05/04 08:06:00;;;;;;;10.43;1.80;;;13.10;59.80;;;;;;5062329;28;20111;-73
2021/05/04 08:08:25;;;;;;;6.75;2.17;;;13.20;59.30;;;;;;5059417;28;20050;-72
2021/05/04 08:10:51;;;;;;;3.78;2.25;;;13.60;58.50;;;;;;5063819;28;20133;-75
2021/05/04 08:13:21;;;;;;;4.30;1.63;;;14.00;58.40;;;;;;5070798;28;20032;-75
2021/05/04 08:15:49;;;;;;;4.07;2.03;;;14.20;56.50;;;;;;5071223;28;20039;-75
2021/05/04 08:18:16;;;;;;;2.80;1.92;;;14.30;55.40;;;;;;5069218;28;20043;-74
2021/05/04 08:20:54;;;;;;;4.30;1.70;;;14.50;56.00;;;;;;5071338;28;20480;-74
2021/05/04 08:23:24;;;;;;;2.53;1.52;;;14.70;56.20;;;;;;5043924;28;20021;-74
2021/05/04 08:25:50;;;;;;;9.80;1.98;;;14.80;57.00;;;;;;5036908;28;20020;-74
2021/05/04 08:28:16;;;;;;;2.45;1.58;;;15.00;52.90;;;;;;5070567;28;20022;-74
2021/05/04 08:30:42;;;;;;;4.28;1.65;;;15.10;53.40;;;;;;5068604;28;20519;-74
2021/05/04 08:33:08;;;;;;;4.75;2.22;;;15.20;54.00;;;;;;5062346;28;20388;-74
2021/05/04 08:35:34;;;;;;;8.15;1.80;;;15.40;52.20;;;;;;5060069;28;20024;-75
2021/05/04 08:38:00;;;;;;;2.83;1.38;;;15.70;51.60;;;;;;5071153;28;20547;-75
2021/05/04 08:40:26;;;;;;;2.90;1.60;;;15.80;47.30;;;;;;5062191;28;20029;-74
2021/05/04 08:42:53;;;;;;;4.97;1.58;;;15.40;46.30;;;;;;5071015;28;20020;-74
2021/05/04 08:45:20;;;;;;;7.22;1.15;;;15.30;46.50;;;;;;5070559;28;20028;-75
2021/05/04 08:47:50;;;;;;;6.28;1.92;;;15.60;46.50;;;;;;5070752;28;20025;-74
2021/05/04 08:50:19;;;;;;;2.33;1.15;;;15.80;46.00;;;;;;5060925;28;20494;-74
2021/05/04 08:52:46;;;;;;;3.60;1.50;;;16.10;44.60;;;;;;5054427;28;20024;-75
2021/05/04 08:55:12;;;;;;;2.28;1.63;;;16.30;43.50;;;;;;5042185;28;20024;-75
2021/05/04 08:57:39;;;;;;;5.07;1.38;;;16.40;42.70;;;;;;5069456;28;20049;-75
2021/05/04 09:00:10;;;;;;;2.35;1.30;;;16.00;43.20;;;;;;5070193;28;20032;-74
2021/05/04 09:02:54;;;;;;;1.95;1.38;;;16.00;43.40;;;;;;5068875;28;20020;-74
2021/05/04 09:05:20;;;;;;;28.08;2.75;;;16.00;43.90;;;;;;5038629;28;20476;-74
2021/05/04 09:07:47;;;;;;;10.82;1.80;;;15.90;44.50;;;;;;5056648;28;20391;-74
2021/05/04 09:12:56;;;;;;;12.10;2.10;;;16.20;43.90;;;;;;5069704;28;20239;-75
2021/05/04 09:15:38;;;;;;;5.20;1.70;;;16.60;44.30;;;;;;5070155;28;20027;-74
2021/05/04 09:21:14;;;;;;;2.67;1.35;;;17.60;41.80;;;;;;5070071;28;20078;-75
2021/05/04 09:23:42;;;;;;;4.68;1.67;;;17.70;40.10;;;;;;5057842;28;20033;-74
2021/05/04 09:26:18;;;;;;;4.75;1.73;;;17.90;41.70;;;;;;5042386;28;20025;-74
2021/05/04 09:28:51;;;;;;;4.55;1.75;;;18.10;42.90;;;;;;5066171;28;20025;-74
2021/05/04 09:31:28;;;;;;;1.85;1.35;;;17.80;43.20;;;;;;5069778;28;20059;-74
2021/05/04 09:33:55;;;;;;;7.63;1.80;;;17.80;43.30;;;;;;5069417;28;20039;-74
2021/05/04 09:36:50;;;;;;;2.75;1.80;;;17.80;43.10;;;;;;5069108;28;20051;-75
2021/05/04 09:39:26;;;;;;;2.67;1.45;;;18.10;43.60;;;;;;5069479;28;20021;-74
2021/05/04 09:41:54;;;;;;;6.20;2.20;;;18.40;43.70;;;;;;5061001;28;20031;-74
2021/05/04 09:44:41;;;;;;;3.53;1.88;;;18.70;42.60;;;;;;5056860;28;20112;-74
2021/05/04 09:47:08;;;;;;;3.50;1.48;;;19.10;41.90;;;;;;5067487;28;20029;-74
2021/05/04 09:49:38;;;;;;;2.15;1.80;;;19.10;41.80;;;;;;5058068;28;20029;-74
2021/05/04 09:55:06;;;;;;;7.07;2.03;;;19.20;41.10;;;;;;5057737;28;20028;-74
2021/05/04 09:57:33;;;;;;;5.75;1.90;;;19.70;41.70;;;;;;5063256;28;20035;-74
2021/05/04 09:59:59;;;;;;;2.70;1.73;;;19.50;40.10;;;;;;5055042;28;20028;-74
2021/05/04 10:02:25;;;;;;;3.50;1.80;;;19.10;40.20;;;;;;5054349;28;20191;-75
2021/05/04 10:04:52;;;;;;;5.13;1.83;;;19.00;43.10;;;;;;5045483;28;20025;-75
2021/05/04 10:07:20;;;;;;;3.03;1.95;;;19.20;40.90;;;;;;5067295;28;20075;-74
2021/05/04 10:09:47;;;;;;;38.85;3.50;;;19.50;39.70;;;;;;5070456;28;20023;-74
2021/05/04 10:12:14;;;;;;;4.18;1.55;;;19.90;40.40;;;;;;5074184;28;20066;-74
2021/05/04 10:14:45;;;;;;;3.40;2.05;;;20.00;40.00;;;;;;5072619;28;20048;-74
2021/05/04 10:17:16;;;;;;;3.30;1.73;;;20.00;39.10;;;;;;5064632;28;20060;-74
2021/05/04 10:19:43;;;;;;;2.05;1.35;;;19.90;39.40;;;;;;5075842;28;20498;-74
2021/05/04 10:22:10;;;;;;;3.45;1.48;;;19.60;40.40;;;;;;5074630;28;20067;-76
2021/05/04 10:24:38;;;;;;;4.00;1.50;;;20.20;39.00;;;;;;5073201;28;20028;-75
2021/05/04 10:27:05;;;;;;;2.38;1.98;;;20.60;38.80;;;;;;5056024;28;20150;-74
2021/05/04 10:29:32;;;;;;;2.35;1.52;;;20.10;38.30;;;;;;5056691;28;20017;-75
2021/05/04 10:31:59;;;;;;;1.23;1.08;;;20.00;39.60;;;;;;5062034;28;20020;-76
2021/05/04 10:34:33;;;;;;;10.43;2.00;;;19.90;39.90;;;;;;5045085;28;20380;-76
2021/05/04 10:37:03;;;;;;;3.45;1.55;;;20.00;39.50;;;;;;5075191;28;20044;-76
2021/05/04 10:39:47;;;;;;;4.07;1.75;;;20.20;39.10;;;;;;5074346;28;20030;-75
2021/05/04 10:42:16;;;;;;;4.70;1.17;;;20.10;38.30;;;;;;5061418;28;20028;-73
2021/05/04 10:44:57;;;;;;;4.35;1.20;;;20.10;38.20;;;;;;5057859;28;20025;-73
2021/05/04 10:47:48;;;;;;;5.50;1.40;;;20.40;39.30;;;;;;5061087;28;20016;-74
2021/05/04 10:50:15;;;;;;;3.43;1.43;;;20.60;39.90;;;;;;5059576;28;20045;-74
2021/05/04 10:52:55;;;;;;;1.92;1.20;;;20.50;38.70;;;;;;5056823;28;20274;-76
2021/05/04 10:55:24;;;;;;;5.68;1.60;;;20.30;38.30;;;;;;5061257;28;20042;-74
2021/05/04 10:58:02;;;;;;;5.82;1.90;;;19.90;36.80;;;;;;5071183;28;20028;-75
2021/05/04 11:01:04;;;;;;;8.43;1.73;;;19.90;37.90;;;;;;5051157;28;20472;-75
2021/05/04 11:03:30;;;;;;;2.40;1.58;;;20.20;38.70;;;;;;5035475;28;20028;-75
2021/05/04 11:06:22;;;;;;;3.53;2.28;;;20.50;37.30;;;;;;5046255;28;20028;-75
2021/05/04 11:08:50;;;;;;;5.15;1.50;;;20.50;37.90;;;;;;5048220;28;20476;-75
2021/05/04 11:11:29;;;;;;;2.92;1.70;;;20.00;37.50;;;;;;5061588;28;20040;-75
2021/05/04 11:13:58;;;;;;;10.30;1.98;;;20.10;39.90;;;;;;5042954;28;20568;-75
2021/05/04 11:16:36;;;;;;;22.73;2.22;;;19.90;40.00;;;;;;5054206;28;20510;-75
2021/05/04 11:19:10;;;;;;;29.55;2.55;;;20.10;40.10;;;;;;5044575;28;20028;-75
2021/05/04 11:21:49;;;;;;;50.58;4.28;;;20.10;38.20;;;;;;5058478;28;20032;-77
2021/05/04 11:24:16;;;;;;;8.77;2.08;;;19.90;39.60;;;;;;5072393;28;20077;-72
2021/05/04 11:26:55;;;;;;;2.95;2.10;;;19.80;41.10;;;;;;5054685;28;20031;-72
2021/05/04 11:29:34;;;;;;;4.07;1.65;;;19.90;38.90;;;;;;5070325;28;20114;-72
2021/05/04 11:32:18;;;;;;;2.83;1.85;;;20.20;38.30;;;;;;5042836;28;20024;-73
2021/05/04 11:34:54;;;;;;;3.75;1.80;;;20.30;38.70;;;;;;5051668;28;20484;-73
2021/05/04 11:37:20;;;;;;;5.75;2.00;;;20.30;38.30;;;;;;5057934;28;20028;-72
2021/05/04 11:40:02;;;;;;;19.10;2.40;;;20.80;36.90;;;;;;5063075;28;20073;-75
2021/05/04 11:42:32;;;;;;;;;;;20.30;37.00;;;;;;5061179;28;20025;-75
2021/05/04 11:45:11;;;;;;;3.88;1.77;;;20.00;39.00;;;;;;5071544;28;19904;-75
2021/05/04 11:47:39;;;;;;;5.88;1.63;;;20.10;37.80;;;;;;5072823;28;20048;-75
2021/05/04 11:50:10;;;;;;;4.40;1.67;;;20.40;38.00;;;;;;5046719;28;20032;-74
2021/05/04 11:52:37;;;;;;;3.83;1.73;;;20.60;38.10;;;;;;5049405;28;20419;-74
2021/05/04 11:55:09;;;;;;;2.78;2.08;;;20.40;37.20;;;;;;5072159;23;20033;-73
2021/05/04 11:57:36;;;;;;;5.65;2.08;;;20.10;37.00;;;;;;5048374;28;20021;-73
2021/05/04 12:00:05;;;;;;;5.13;1.80;;;19.90;39.60;;;;;;5018526;28;20085;-73
2021/05/04 12:02:32;;;;;;;4.75;2.45;;;20.20;38.20;;;;;;5033230;28;20087;-74
2021/05/04 12:04:58;;;;;;;3.03;1.67;;;20.40;36.70;;;;;;5051319;28;20786;-74
2021/05/04 12:07:40;;;;;;;6.93;1.58;;;20.50;37.60;;;;;;5032697;28;20090;-74
2021/05/04 12:10:28;;;;;;;3.33;1.90;;;20.60;37.40;;;;;;5051416;28;20499;-74
2021/05/04 12:12:54;;;;;;;6.13;1.63;;;20.60;37.80;;;;;;5050842;28;20036;-74
2021/05/04 12:15:27;;;;;;;1.80;1.70;;;20.50;36.90;;;;;;5051393;28;20029;-74
2021/05/04 12:18:04;;;;;;;2.70;1.88;;;20.30;37.70;;;;;;5034733;28;20036;-77
2021/05/04 12:20:34;;;;;;;9.73;2.20;;;20.30;38.40;;;;;;5050211;28;20430;-75
2021/05/04 12:23:07;;;;;;;3.65;1.92;;;19.90;37.90;;;;;;5052898;28;20133;-75
2021/05/04 12:25:52;;;;;;;8.07;2.00;;;19.60;38.50;;;;;;5052611;28;20032;-75
2021/05/04 12:28:57;;;;;;;3.95;2.13;;;19.70;40.20;;;;;;5054584;28;20112;-75
2021/05/04 12:31:38;;;;;;;9.45;2.10;;;19.80;39.60;;;;;;5036548;28;20036;-77
2021/05/04 12:34:08;;;;;;;2.83;1.70;;;19.50;40.20;;;;;;5055150;28;20396;-75
2021/05/04 12:36:57;;;;;;;1.60;1.50;;;19.70;39.20;;;;;;5052674;28;20384;-75
2021/05/04 12:39:49;;;;;;;4.63;2.50;;;19.80;40.10;;;;;;5054813;28;20416;-75
2021/05/04 12:42:28;;;;;;;3.83;1.70;;;19.50;39.30;;;;;;5049203;28;20153;-74
2021/05/04 12:45:11;;;;;;;5.25;1.92;;;19.40;39.60;;;;;;5054370;28;20025;-76
2021/05/04 12:47:53;;;;;;;7.45;2.15;;;19.40;39.30;;;;;;5041883;28;20107;-74
2021/05/04 12:50:30;;;;;;;2.70;1.75;;;19.60;39.90;;;;;;5054566;28;20024;-76
2021/05/04 12:58:15;;;;;;;10.40;2.88;;;19.40;39.90;;;;;;5041862;28;20041;-74
2021/05/04 13:00:42;;;;;;;7.07;2.33;;;19.50;40.50;;;;;;5042738;28;20033;-76
2021/05/04 13:03:12;;;;;;;7.13;1.70;;;19.50;39.40;;;;;;5022869;28;20071;-75
2021/05/04 13:05:38;;;;;;;10.48;1.75;;;19.30;39.90;;;;;;5030852;28;20361;-74
2021/05/04 13:08:08;;;;;;;5.28;2.00;;;19.00;40.00;;;;;;5045434;28;20037;-74
2021/05/04 13:29:05;;;;;;;;;;;18.60;43.40;;;;;;5033109;28;20075;-74
2021/05/04 13:31:33;;;;;;;13.18;2.75;;;18.60;43.30;;;;;;5014624;28;20324;-74